Time;durP1;ratioP1;P1;durP2;ratioP2;P2;SDS_P1;SDS_P2;PMS_P1;PMS_P2;Temp;Humidity;BMP_temperature;BMP_pressure;BME280_temperature;BME280_humidity;BME280_pressure;Samples;Min_cycle;Max_cycle;Signal;HPM_P1;HPM_P2
2023/04/13 00:00:29;;;;;;;1.70;0.87;;;;;;;5.96;79.15;94413.28;6118094;23;20180;-82
2023/04/13 00:02:55;;;;;;;1.13;0.83;;;;;;;5.97;79.12;94414.06;6094690;23;20716;-82
2023/04/13 00:05:21;;;;;;;3.40;0.73;;;;;;;6.04;78.82;94409.97;6093457;23;20207;-82
2023/04/13 00:07:47;;;;;;;1.43;0.70;;;;;;;5.86;78.56;94427.97;6069665;23;20777;-83
2023/04/13 00:10:14;;;;;;;0.80;0.57;;;;;;;5.94;78.32;94428.06;6093744;23;20176;-83
2023/04/13 00:12:41;;;;;;;2.20;0.60;;;;;;;5.90;78.69;94429.31;6117707;23;20167;-83
2023/04/13 00:15:08;;;;;;;0.97;0.60;;;;;;;5.67;79.52;94420.38;6117972;23;20366;-83
2023/04/13 00:17:33;;;;;;;1.33;0.70;;;;;;;5.67;78.61;94420.38;6092816;23;20160;-82
2023/04/13 00:20:07;;;;;;;2.00;0.63;;;;;;;5.84;77.83;94411.84;6094490;23;20192;-83
2023/04/13 00:22:33;;;;;;;1.63;0.60;;;;;;;5.79;77.92;94418.38;6094738;23;20666;-82
2023/04/13 00:24:58;;;;;;;3.70;0.67;;;;;;;5.62;78.04;94420.78;6118001;23;20591;-83
2023/04/13 00:27:29;;;;;;;1.10;0.93;;;;;;;5.74;77.44;94412.84;6094345;23;20179;-82
2023/04/13 00:29:57;;;;;;;2.37;0.60;;;;;;;5.61;76.97;94413.22;6094744;23;20172;-83
2023/04/13 00:32:24;;;;;;;2.73;0.57;;;;;;;5.59;76.24;94421.09;6118062;23;20164;-82
2023/04/13 00:34:50;;;;;;;2.60;0.70;;;;;;;5.47;75.84;94421.41;6069102;23;20377;-82
2023/04/13 00:37:19;;;;;;;0.80;0.60;;;;;;;5.50;75.71;94411.66;6118962;23;20183;-82
2023/04/13 00:39:45;;;;;;;1.10;0.70;;;;;;;5.29;74.95;94411.88;6094400;23;20241;-83
2023/04/13 00:42:11;;;;;;;3.93;1.00;;;;;;;5.43;75.21;94409.78;6118933;23;20160;-83
2023/04/13 00:44:36;;;;;;;2.00;0.90;;;;;;;5.42;75.59;94416.72;6093590;23;20235;-83
2023/04/13 00:47:03;;;;;;;2.00;0.50;;;;;;;5.26;74.13;94408.78;6094079;23;20180;-83
2023/04/13 00:49:30;;;;;;;1.77;0.53;;;;;;;5.43;74.64;94417.50;6118697;23;20165;-82
2023/04/13 00:51:55;;;;;;;2.00;0.70;;;;;;;5.38;73.92;94408.44;6118382;23;20554;-82
2023/04/13 00:54:21;;;;;;;1.90;0.80;;;;;;;5.32;74.02;94415.94;6093810;23;20183;-82
2023/04/13 00:56:47;;;;;;;3.03;0.73;;;;;;;5.35;74.42;94413.06;6093941;23;20168;-83
2023/04/13 00:59:13;;;;;;;1.13;0.70;;;;;;;5.33;74.60;94420.13;6118362;23;20244;-82
2023/04/13 01:01:45;;;;;;;3.27;0.60;;;;;;;5.17;74.96;94407.88;6070137;23;20262;-82
2023/04/13 01:04:17;;;;;;;2.73;0.60;;;;;;;5.14;74.75;94404.78;6094412;23;20148;-82
2023/04/13 01:06:48;;;;;;;1.67;0.70;;;;;;;5.06;74.54;94410.66;6093838;23;20153;-82
2023/04/13 01:09:17;;;;;;;1.70;0.80;;;;;;;5.15;74.86;94403.84;6094574;23;20528;-85
2023/04/13 01:11:57;;;;;;;0.90;0.60;;;;;;;5.04;75.19;94412.56;6118790;23;20176;-82
2023/04/13 01:14:35;;;;;;;1.10;0.57;;;;;;;5.11;75.09;94416.16;6094100;23;20255;-82
2023/04/13 01:17:04;;;;;;;1.87;0.73;;;;;;;5.06;75.71;94414.03;6093056;23;20492;-82
2023/04/13 01:19:52;;;;;;;2.90;0.80;;;;;;;5.15;75.62;94404.66;6094358;23;20363;-82
2023/04/13 01:22:24;;;;;;;1.50;0.70;;;;;;;5.10;75.91;94410.19;6094094;23;20659;-83
2023/04/13 01:24:56;;;;;;;1.90;0.80;;;;;;;5.07;75.98;94407.94;6095666;23;20164;-83
2023/04/13 01:27:55;;;;;;;3.83;1.03;;;;;;;4.86;76.94;94417.63;6120424;23;20169;-81
2023/04/13 01:30:23;;;;;;;0.87;0.63;;;;;;;4.99;76.64;94417.31;6095674;23;20195;-83
2023/04/13 01:32:51;;;;;;;3.90;0.90;;;;;;;5.04;76.62;94420.28;6120450;23;20169;-83
2023/04/13 01:35:18;;;;;;;2.53;1.17;;;;;;;4.95;77.16;94415.97;6096072;23;20227;-83
2023/04/13 01:37:43;;;;;;;1.47;0.70;;;;;;;4.95;77.14;94413.41;6120310;23;20227;-83
2023/04/13 01:40:12;;;;;;;3.07;1.00;;;;;;;4.81;78.11;94418.03;6120095;23;20173;-82
2023/04/13 01:42:42;;;;;;;1.70;0.70;;;;;;;4.70;78.72;94418.22;6072328;23;20161;-83
2023/04/13 01:45:14;;;;;;;1.30;0.60;;;;;;;4.72;79.24;94411.16;6119680;23;20209;-84
2023/04/13 01:47:46;;;;;;;2.63;1.00;;;;;;;4.62;79.37;94412.13;6120559;23;20168;-82
2023/04/13 01:50:24;;;;;;;2.50;1.50;;;;;;;4.69;78.61;94410.63;6095670;23;20631;-83
2023/04/13 01:52:51;;;;;;;6.67;1.90;;;;;;;4.71;78.61;94412.13;6072886;23;20156;-82
2023/04/13 01:55:17;;;;;;;4.77;1.50;;;;;;;4.57;78.86;94402.25;6094986;23;20180;-84
2023/04/13 01:57:47;;;;;;;2.43;0.90;;;;;;;4.62;78.84;94410.38;6096158;23;20469;-83
2023/04/13 02:00:15;;;;;;;3.93;2.30;;;;;;;4.51;78.06;94406.22;6119726;23;20184;-82
2023/04/13 02:02:41;;;;;;;7.80;2.60;;;;;;;4.58;77.17;94398.72;6120492;23;20195;-83
2023/04/13 02:05:08;;;;;;;5.53;3.13;;;;;;;4.65;77.05;94399.00;6071809;23;20179;-83
2023/04/13 02:07:33;;;;;;;7.83;3.30;;;;;;;4.59;77.13;94392.63;6119334;23;20192;-82
2023/04/13 02:09:59;;;;;;;5.03;2.80;;;;;;;4.63;76.56;94391.44;6071555;23;20184;-83
2023/04/13 02:12:25;;;;;;;7.90;3.00;;;;;;;4.57;76.65;94391.97;6120300;23;20160;-82
2023/04/13 02:14:50;;;;;;;4.87;2.60;;;;;;;4.63;76.06;94396.56;6094611;23;20184;-83
2023/04/13 02:17:16;;;;;;;5.00;2.83;;;;;;;4.69;76.38;94396.03;6118837;23;20192;-82
2023/04/13 02:19:42;;;;;;;5.90;3.03;;;;;;;4.70;76.20;94394.25;6119797;23;20194;-82
2023/04/13 02:22:11;;;;;;;7.47;2.77;;;;;;;4.75;75.55;94390.28;6095767;23;20168;-83
2023/04/13 02:24:41;;;;;;;4.00;2.63;;;;;;;4.61;75.71;94388.19;6095758;23;20157;-83
2023/04/13 02:27:15;;;;;;;2.97;1.97;;;;;;;4.68;75.04;94386.69;6095641;23;20504;-83
2023/04/13 02:29:45;;;;;;;5.50;2.10;;;;;;;4.72;74.71;94380.28;6095187;23;20192;-82
2023/04/13 02:32:16;;;;;;;4.30;1.97;;;;;;;4.58;75.08;94373.03;6119971;23;20243;-82
2023/04/13 02:34:42;;;;;;;5.60;1.70;;;;;;;4.73;74.93;94379.34;6095568;23;20177;-85
2023/04/13 02:37:08;;;;;;;2.90;1.20;;;;;;;4.64;74.48;94376.81;6070928;23;20274;-83
2023/04/13 02:39:33;;;;;;;2.00;1.20;;;;;;;4.62;74.17;94382.09;6095087;23;20166;-83
2023/04/13 02:42:01;;;;;;;3.87;1.10;;;;;;;4.64;73.83;94382.75;6095236;23;20188;-85
2023/04/13 02:44:27;;;;;;;3.10;0.97;;;;;;;4.61;73.91;94385.63;6095067;23;20152;-82
2023/04/13 02:46:55;;;;;;;2.23;1.00;;;;;;;4.67;73.19;94392.75;6094377;23;20157;-83
2023/04/13 02:49:21;;;;;;;4.63;1.07;;;;;;;4.67;73.61;94384.22;6120020;23;20163;-82
2023/04/13 02:51:46;;;;;;;5.83;1.47;;;;;;;4.66;73.30;94386.00;6095266;23;20668;-83
2023/04/13 02:54:12;;;;;;;4.47;0.80;;;;;;;4.51;73.71;94385.66;6094958;23;20478;-82
2023/04/13 02:56:37;;;;;;;5.07;1.20;;;;;;;4.63;72.45;94381.13;6094471;23;20195;-86
2023/04/13 02:59:03;;;;;;;2.40;0.80;;;;;;;4.60;73.13;94376.28;6096929;23;20538;-84
2023/04/13 03:01:28;;;;;;;4.20;1.20;;;;;;;4.59;72.15;94382.34;6095510;23;20179;-83
2023/04/13 03:03:54;;;;;;;5.07;1.30;;;;;;;4.70;71.77;94381.41;6095013;23;20148;-83
2023/04/13 03:06:21;;;;;;;4.03;1.00;;;;;;;4.47;72.45;94380.91;6094774;23;20160;-83
2023/04/13 03:08:49;;;;;;;4.63;1.10;;;;;;;4.53;71.98;94390.66;6094901;23;20172;-83
2023/04/13 03:11:15;;;;;;;2.20;0.73;;;;;;;4.47;71.92;94394.56;6071783;23;20180;-82
2023/04/13 03:13:40;;;;;;;3.73;0.80;;;;;;;4.55;72.01;94397.25;6071074;23;20172;-83
2023/04/13 03:16:06;;;;;;;4.37;0.97;;;;;;;4.45;72.67;94403.38;6069720;23;20599;-83
2023/04/13 03:18:31;;;;;;;4.17;0.97;;;;;;;4.59;71.71;94404.69;6095042;23;20547;-84
2023/04/13 03:20:56;;;;;;;1.97;0.87;;;;;;;4.45;72.26;94414.47;6070930;23;20206;-83
2023/04/13 03:23:22;;;;;;;1.70;0.87;;;;;;;4.59;71.77;94420.91;6094901;23;20162;-83
2023/04/13 03:25:50;;;;;;;3.87;1.10;;;;;;;4.61;72.29;94426.75;6094828;23;20163;-83
2023/04/13 03:28:17;;;;;;;2.53;0.93;;;;;;;4.53;72.75;94429.22;6094780;23;20165;-83
2023/04/13 03:30:43;;;;;;;2.13;1.00;;;;;;;4.39;72.62;94432.19;6095399;23;20243;-83
2023/04/13 03:33:08;;;;;;;6.53;1.33;;;;;;;4.45;72.52;94434.22;6071114;23;20159;-84
2023/04/13 03:35:33;;;;;;;5.97;1.40;;;;;;;4.46;71.96;94433.28;6094040;23;20204;-83
2023/04/13 03:37:59;;;;;;;1.83;0.80;;;;;;;4.50;72.15;94429.47;6094599;23;20164;-83
2023/04/13 03:40:24;;;;;;;5.27;1.00;;;;;;;4.59;71.92;94435.53;6095222;23;20275;-84
2023/04/13 03:42:50;;;;;;;4.57;1.87;;;;;;;4.71;71.58;94437.81;6118941;23;20191;-83
2023/04/13 03:45:16;;;;;;;4.70;1.20;;;;;;;4.66;71.62;94436.63;6118482;23;20152;-83
2023/04/13 03:47:42;;;;;;;4.20;1.00;;;;;;;4.38;72.04;94443.44;6096343;23;20494;-83
2023/04/13 03:50:08;;;;;;;2.23;1.00;;;;;;;4.44;72.24;94438.56;6095077;23;20188;-83
2023/04/13 03:52:33;;;;;;;3.90;0.77;;;;;;;4.57;72.14;94443.41;6119321;23;20184;-83
2023/04/13 03:54:59;;;;;;;4.90;1.03;;;;;;;4.68;72.07;94448.41;6094415;23;20635;-84
2023/04/13 03:57:25;;;;;;;4.07;1.17;;;;;;;4.74;71.28;94452.97;6119402;23;20165;-83
2023/04/13 03:59:50;;;;;;;5.73;1.10;;;;;;;4.85;71.43;94457.13;6095641;23;20190;-83
2023/04/13 04:02:16;;;;;;;5.23;1.37;;;;;;;4.80;72.00;94457.56;6071118;23;20493;-83
2023/04/13 04:04:41;;;;;;;2.80;1.33;;;;;;;4.80;71.68;94455.00;6095691;23;20159;-85
2023/04/13 04:07:07;;;;;;;4.73;1.00;;;;;;;4.93;71.54;94454.69;6071365;23;20175;-83
2023/04/13 04:09:33;;;;;;;1.87;0.60;;;;;;;4.89;71.79;94457.69;6095018;23;20198;-83
2023/04/13 04:12:03;;;;;;;1.57;1.00;;;;;;;4.92;72.23;94452.25;6071625;23;20157;-84
2023/04/13 04:14:31;;;;;;;2.27;1.10;;;;;;;4.95;71.37;94446.84;6072088;23;20255;-85
2023/04/13 04:16:56;;;;;;;3.87;1.10;;;;;;;5.01;72.23;94452.22;6094111;23;20164;-83
2023/04/13 04:19:21;;;;;;;4.23;0.80;;;;;;;4.87;72.46;94459.59;6071122;23;20236;-84
2023/04/13 04:21:48;;;;;;;3.70;1.20;;;;;;;5.02;71.66;94460.75;6120226;23;20513;-84
2023/04/13 04:24:19;;;;;;;6.13;1.23;;;;;;;5.04;72.83;94461.44;6120560;23;20212;-84
2023/04/13 04:26:49;;;;;;;1.90;0.60;;;;;;;5.01;72.82;94453.97;6095435;23;20158;-84
2023/04/13 04:29:16;;;;;;;4.80;0.80;;;;;;;4.93;73.34;94474.44;6096827;23;20171;-83
2023/04/13 04:31:43;;;;;;;5.13;1.30;;;;;;;4.84;73.33;94464.03;6120962;23;20201;-83
2023/04/13 04:34:09;;;;;;;3.53;1.10;;;;;;;5.03;73.03;94470.91;6122053;23;20276;-84
2023/04/13 04:36:40;;;;;;;6.00;1.23;;;;;;;5.01;72.61;94465.09;6123172;23;20199;-85
2023/04/13 04:39:08;;;;;;;3.87;1.00;;;;;;;5.14;72.56;94467.38;6106310;23;20146;-84
2023/04/13 04:41:36;;;;;;;4.83;1.00;;;;;;;5.22;72.07;94479.53;6147535;23;20188;-83
2023/04/13 04:44:03;;;;;;;6.23;0.97;;;;;;;5.23;72.67;94478.56;6148017;23;20164;-84
2023/04/13 04:46:29;;;;;;;5.17;1.00;;;;;;;5.07;73.45;94474.81;6146983;23;20171;-86
2023/04/13 04:48:54;;;;;;;3.23;1.10;;;;;;;5.01;73.47;94477.94;6147255;23;20167;-86
2023/04/13 04:51:23;;;;;;;4.27;1.10;;;;;;;5.23;72.95;94483.72;6122349;23;20184;-86
2023/04/13 04:53:49;;;;;;;6.53;1.17;;;;;;;5.24;73.49;94486.16;6123428;23;20196;-86
2023/04/13 04:56:14;;;;;;;3.13;1.00;;;;;;;5.08;74.14;94489.31;6121289;23;20197;-86
2023/04/13 04:58:40;;;;;;;4.43;1.50;;;;;;;5.11;74.63;94483.06;6112363;23;20165;-84
2023/04/13 05:01:05;;;;;;;2.13;0.80;;;;;;;5.15;74.66;94493.91;6098035;23;20183;-84
2023/04/13 05:03:34;;;;;;;3.00;1.00;;;;;;;5.11;75.46;94498.50;6122188;23;20157;-84
2023/04/13 05:06:03;;;;;;;2.40;0.90;;;;;;;5.21;75.21;94499.31;6121874;23;20155;-84
2023/04/13 05:08:29;;;;;;;3.63;1.30;;;;;;;5.27;74.91;94496.16;6097674;23;20244;-85
2023/04/13 05:10:54;;;;;;;4.20;0.90;;;;;;;5.30;75.40;94502.78;6096509;23;20207;-84
2023/04/13 05:13:29;;;;;;;;;;;;;;;;;;;;;
2023/04/13 05:15:57;;;;;;;5.63;1.27;;;;;;;5.11;75.38;94501.88;6095508;23;20278;-85
2023/04/13 05:18:24;;;;;;;5.00;1.60;;;;;;;5.02;74.54;94501.91;6096136;23;20160;-83
2023/04/13 05:20:52;;;;;;;3.97;1.00;;;;;;;5.22;73.87;94511.22;6096167;23;20177;-84
2023/04/13 05:24:01;;;;;;;;;;;;;;;;;;;;;
2023/04/13 05:30:20;;;;;;;3.73;1.20;;;;;;;4.95;76.69;94509.41;5996199;23;20266;-84
2023/04/13 05:36:41;;;;;;;6.07;1.40;;;;;;;5.38;75.54;94516.56;6065599;23;20169;-86
2023/04/13 05:39:42;;;;;;;3.13;1.17;;;;;;;5.56;75.26;94518.41;6010795;23;20619;-84
2023/04/13 05:46:10;;;;;;;6.97;1.10;;;;;;;5.47;73.95;94540.66;6063719;23;20232;-85
2023/04/13 05:49:03;;;;;;;7.53;1.30;;;;;;;5.46;74.69;94533.91;5976360;23;20179;-85
2023/04/13 05:51:52;;;;;;;7.10;1.60;;;;;;;5.55;74.50;94525.31;5952308;24;20199;-85
2023/04/13 05:54:52;;;;;;;6.43;1.23;;;;;;;5.80;73.71;94526.44;5979219;24;20187;-85
2023/04/13 05:57:46;;;;;;;4.63;1.30;;;;;;;5.64;74.44;94526.22;5980322;24;20175;-84
2023/04/13 06:01:07;;;;;;;3.57;1.30;;;;;;;5.81;74.05;94529.81;5923835;24;20193;-84
2023/04/13 06:04:18;;;;;;;;;;;;;;;;;;;;;
2023/04/13 06:07:14;;;;;;;5.83;1.97;;;;;;;5.88;73.01;94528.28;5933020;24;20251;-84
2023/04/13 06:09:43;;;;;;;3.10;1.37;;;;;;;5.65;74.21;94520.97;5927874;24;20168;-85
2023/04/13 06:12:10;;;;;;;6.10;1.60;;;;;;;5.86;73.57;94522.47;5951122;24;20184;-82
2023/04/13 10:51:49;;;;;;;4.80;1.25;;;;;;;10.80;57.06;94599.22;6024219;23;20221;31
2023/04/13 11:01:07;;;;;;;3.97;1.10;;;;;;;10.05;56.37;94600.50;6058994;23;20207;-82
2023/04/13 11:03:32;;;;;;;3.63;0.97;;;;;;;10.21;56.30;94602.25;6013077;23;20168;-83
2023/04/13 11:06:07;;;;;;;4.20;1.13;;;;;;;10.23;57.55;94602.09;6040999;23;20173;-84
2023/04/13 11:08:41;;;;;;;5.20;1.70;;;;;;;10.03;57.55;94604.25;6042697;23;20195;-84
2023/04/13 11:11:35;;;;;;;2.17;1.00;;;;;;;10.37;57.23;94606.59;6043945;23;20522;-84
2023/04/13 11:14:08;;;;;;;3.50;0.80;;;;;;;10.81;55.35;94595.66;6044759;23;20181;-83
2023/04/13 11:17:03;;;;;;;3.23;1.00;;;;;;;10.81;54.88;94593.88;6043856;23;20595;-83
2023/04/13 11:22:57;;;;;;;3.07;1.20;;;;;;;11.27;55.16;94589.47;6001410;23;20607;-83
2023/04/13 11:25:36;;;;;;;2.50;1.20;;;;;;;11.57;54.06;94592.97;6042600;23;20154;-83
2023/04/13 11:28:07;;;;;;;0.70;0.70;;;;;;;11.68;52.36;94596.09;6043315;23;20164;-83
2023/04/13 11:31:28;;;;;;;4.37;0.90;;;;;;;12.01;51.22;94594.78;6018632;23;20532;-81
2023/04/13 11:33:55;;;;;;;2.30;0.90;;;;;;;11.86;51.78;94594.00;6007550;23;20535;-84
2023/04/13 11:36:33;;;;;;;2.93;1.00;;;;;;;11.50;52.04;94583.44;6007195;23;20308;-83
2023/04/13 11:39:04;;;;;;;1.80;0.87;;;;;;;10.89;52.81;94585.22;5984137;23;20159;-83
2023/04/13 11:41:31;;;;;;;5.17;1.20;;;;;;;12.00;51.17;94587.97;6007677;23;20246;-84
2023/04/13 11:44:51;;;;;;;1.90;0.90;;;;;;;12.35;50.66;94578.63;6007317;23;20171;-82
2023/04/13 12:11:56;;;;;;;;;;;;;;;;;;;;;
2023/04/13 12:24:46;;;;;;;;;;;;;;;;;;;;;
2023/04/13 15:01:39;;;;;;;4.03;1.47;;;;;;;10.60;57.17;94614.41;6285073;22;20202;-85
2023/04/13 15:05:00;;;;;;;5.17;1.60;;;;;;;10.80;56.55;94607.03;6284312;22;20205;-84
2023/04/13 15:14:06;;;;;;;4.83;1.77;;;;;;;10.61;58.37;94616.06;6153484;23;20202;-84
2023/04/13 15:34:10;;;;;;;5.93;1.80;;;;;;;10.61;58.29;94605.69;6074539;23;20192;-87
2023/04/13 15:41:03;;;;;;;;;;;;;;;;;;;;;
2023/04/13 15:47:58;;;;;;;5.37;1.60;;;;;;;11.40;53.88;94612.28;5979583;24;20197;-86
2023/04/13 16:01:26;;;;;;;5.83;2.10;;;;;;;10.79;55.38;94619.19;5981005;24;20190;-86
2023/04/13 16:04:46;;;;;;;;;;;;;;;;;;;;;
2023/04/13 16:11:31;;;;;;;14.37;5.63;;;;;;;10.33;58.85;94629.47;5970597;24;20183;-84
2023/04/13 16:14:24;;;;;;;3.50;2.00;;;;;;;10.13;59.61;94644.59;6007910;23;20280;-85
2023/04/13 16:17:33;;;;;;;4.77;2.20;;;;;;;10.36;59.33;94649.91;5987922;23;20234;-84
2023/04/13 16:26:41;;;;;;;9.57;5.53;;;;;;;10.35;58.24;94671.66;5974578;23;20935;-85
2023/04/13 16:33:00;;;;;;;3.63;1.50;;;;;;;9.62;59.67;94662.16;6008541;23;20260;-84
2023/04/13 16:42:10;;;;;;;5.07;2.10;;;;;;;9.80;60.53;94669.75;6035863;23;20192;-85
2023/04/13 16:44:35;;;;;;;4.17;1.47;;;;;;;8.93;61.71;94668.63;6074806;23;20217;-84
2023/04/13 16:47:10;;;;;;;2.10;1.37;;;;;;;9.42;62.02;94678.22;6231603;22;20543;-84
2023/04/13 16:50:10;;;;;;;5.40;2.47;;;;;;;9.38;62.23;94684.72;6223566;22;20170;-84
2023/04/13 16:52:57;;;;;;;7.60;3.10;;;;;;;9.16;59.06;94693.91;6250623;22;20148;-85
2023/04/13 16:55:50;;;;;;;6.37;1.33;;;;;;;9.06;58.83;94689.69;6224396;22;20176;-84
2023/04/13 16:58:43;;;;;;;4.23;1.80;;;;;;;8.94;59.38;94674.59;6253920;22;20149;-84
2023/04/13 17:01:44;;;;;;;5.67;1.37;;;;;;;8.03;62.65;94680.34;6182164;23;20189;-83
2023/04/13 17:04:13;;;;;;;3.57;1.50;;;;;;;8.00;64.73;94674.69;6132946;23;20185;-85
2023/04/13 17:06:38;;;;;;;2.87;1.33;;;;;;;8.14;64.70;94679.28;6133034;23;20181;-84
2023/04/13 17:09:18;;;;;;;2.93;1.57;;;;;;;7.45;67.92;94675.78;6133387;23;20158;-83
2023/04/13 17:12:21;;;;;;;4.00;1.30;;;;;;;7.41;68.07;94668.44;6133925;23;20162;-85
2023/04/13 17:15:39;;;;;;;;;;;;;;;;;;;;;
2023/04/13 17:18:05;;;;;;;3.83;1.33;;;;;;;7.33;64.76;94670.03;5926104;24;20260;-84
2023/04/13 17:23:49;;;;;;;6.50;5.70;;;;;;;7.61;63.19;94675.91;5922426;24;20175;-84
2023/04/13 17:29:48;;;;;;;5.20;3.07;;;;;;;8.40;61.55;94698.22;5951405;24;20211;-84
2023/04/13 17:32:18;;;;;;;4.33;2.20;;;;;;;8.50;60.90;94700.69;5951061;24;20168;-84
2023/04/13 17:41:50;;;;;;;4.83;1.33;;;;;;;8.47;60.85;94708.72;5953641;24;20176;-84
2023/04/13 17:44:35;;;;;;;3.30;1.30;;;;;;;8.36;60.79;94715.00;5931364;24;20168;-85
2023/04/13 17:50:55;;;;;;;4.67;1.37;;;;;;;8.05;62.87;94704.28;5921559;24;20175;-85
2023/04/13 18:01:12;;;;;;;;;;;;;;;;;;;;;
2023/04/13 18:04:14;;;;;;;4.93;2.80;;;;;;;7.55;65.55;94711.84;5977007;23;20245;-85
2023/04/13 18:07:37;;;;;;;;;;;;;;;;;;;;;
2023/04/13 18:23:36;;;;;;;9.17;3.80;;;;;;;6.93;67.56;94716.13;6246200;23;20219;-84
2023/04/13 18:39:56;;;;;;;14.10;9.63;;;;;;;6.38;70.83;94732.41;6092020;23;20205;-84
2023/04/13 18:42:56;;;;;;;11.40;7.70;;;;;;;6.16;71.30;94730.19;6069427;23;20251;-84
2023/04/13 18:51:13;;;;;;;58.17;37.00;;;;;;;6.06;71.75;94737.13;6246171;22;20200;-84
2023/04/13 18:54:01;;;;;;;87.90;51.50;;;;;;;5.94;72.45;94739.88;6196070;23;20157;-83
2023/04/13 18:56:48;;;;;;;76.27;42.97;;;;;;;5.88;72.84;94737.81;6193340;23;20280;-87
2023/04/13 19:00:11;;;;;;;116.50;64.63;;;;;;;5.81;74.06;94748.81;6193096;23;20479;-85
2023/04/13 19:06:42;;;;;;;41.13;26.53;;;;;;;5.66;76.12;94751.03;6245533;22;21173;-82
2023/04/13 19:09:56;;;;;;;8.97;5.60;;;;;;;5.79;75.33;94743.81;6187950;23;20497;-83
2023/04/13 19:28:47;;;;;;;5.93;2.73;;;;;;;5.59;78.09;94749.94;6271777;22;20222;-83
2023/04/13 19:39:12;;;;;;;6.20;1.93;;;;;;;5.60;77.51;94746.41;6260330;22;20306;-84
2023/04/13 19:42:41;;;;;;;;;;;;;;;;;;;;;
2023/04/13 20:07:50;;;;;;;2.87;1.70;;;;;;;5.08;78.16;94759.53;6205813;23;20593;-83
2023/04/13 20:35:38;;;;;;;7.23;2.00;;;;;;;5.52;76.48;94766.88;6182713;23;20277;-85
2023/04/13 20:41:59;;;;;;;;;;;;;;;;;;;;;
2023/04/13 20:44:57;;;;;;;2.67;1.63;;;;;;;5.61;75.44;94766.06;6097536;23;20164;-83
2023/04/13 20:47:26;;;;;;;4.43;2.20;;;;;;;5.58;75.58;94767.16;6096502;23;20269;-83
2023/04/13 20:52:40;;;;;;;3.80;1.70;;;;;;;5.46;75.64;94767.41;6267172;22;20183;-85
2023/04/13 20:55:43;;;;;;;5.20;1.83;;;;;;;5.48;75.51;94771.50;6274531;22;20164;-84
2023/04/13 21:03:07;;;;;;;4.67;1.80;;;;;;;5.44;76.06;94767.53;6042490;23;20258;-85
2023/04/13 21:17:12;;;;;;;5.47;2.50;;;;;;;5.49;78.13;94769.72;5805958;24;20271;-84
2023/04/13 21:34:13;;;;;;;;;;;;;;;;;;;;;
2023/04/13 21:39:34;;;;;;;5.77;2.60;;;;;;;5.60;77.76;94751.56;6273683;22;20206;-83
2023/04/13 21:59:55;;;;;;;6.93;3.10;;;;;;;5.23;79.02;94765.09;6121274;23;20167;-84
2023/04/13 22:13:28;;;;;;;;;;;;;;;;;;;;;
2023/04/13 22:20:00;;;;;;;;;;;;;;;;;;;;;
2023/04/13 23:25:17;;;;;;;9.27;2.93;;;;;;;5.41;67.05;94778.13;6275338;22;20148;-86
2023/04/13 23:42:18;;;;;;;7.40;2.20;;;;;;;5.33;67.14;94783.94;6035126;23;20188;-86
